createdAt,value
2017-07-19T00:01:47.208Z,6.40
2017-07-19T00:04:14.204Z,8.33
2017-07-19T00:06:40.966Z,10.70
2017-07-19T00:09:07.252Z,11.40
2017-07-19T00:11:34.528Z,8.40
2017-07-19T00:14:01.392Z,8.53
2017-07-19T00:16:28.613Z,8.90
2017-07-19T00:18:55.259Z,10.87
2017-07-19T00:21:23.001Z,10.23
2017-07-19T00:23:49.269Z,10.80
2017-07-19T00:26:15.547Z,8.17
2017-07-19T00:28:42.510Z,10.90
2017-07-19T00:31:08.774Z,9.60
2017-07-19T00:33:35.290Z,10.70
2017-07-19T00:36:02.203Z,11.20
2017-07-19T00:38:28.797Z,11.33
2017-07-19T00:40:55.109Z,11.73
2017-07-19T00:43:21.981Z,10.83
2017-07-19T00:45:48.715Z,12.07
2017-07-19T00:48:15.811Z,11.33
2017-07-19T00:50:42.077Z,11.50
2017-07-19T00:53:09.301Z,11.27
2017-07-19T00:55:35.576Z,11.40
2017-07-19T00:58:01.847Z,11.13
2017-07-19T01:00:28.805Z,11.70
2017-07-19T01:02:56.049Z,11.90
2017-07-19T01:05:22.362Z,10.73
2017-07-19T01:07:48.669Z,11.10
2017-07-19T01:10:15.021Z,11.40
2017-07-19T01:12:41.318Z,10.17
2017-07-19T01:15:07.589Z,10.10
2017-07-19T01:17:33.865Z,10.63
2017-07-19T01:20:01.128Z,11.33
2017-07-19T01:22:27.950Z,9.70
2017-07-19T01:24:54.233Z,9.50
2017-07-19T01:27:20.887Z,11.60
2017-07-19T01:29:47.171Z,11.30
2017-07-19T01:32:13.428Z,9.73
2017-07-19T01:34:41.274Z,11.00
2017-07-19T01:37:09.044Z,10.63
2017-07-19T01:39:36.185Z,11.10
2017-07-19T01:42:03.010Z,10.60
2017-07-19T01:44:29.290Z,10.70
2017-07-19T01:46:55.564Z,10.73
2017-07-19T01:49:21.826Z,10.50
2017-07-19T01:51:49.547Z,11.20
2017-07-19T01:54:15.842Z,10.50
2017-07-19T01:56:43.004Z,11.40
2017-07-19T01:59:09.357Z,11.70
2017-07-19T02:01:35.649Z,11.00
2017-07-19T02:04:02.043Z,11.00
2017-07-19T02:06:28.350Z,10.70
2017-07-19T02:08:54.692Z,11.60
2017-07-19T02:11:20.970Z,10.83
2017-07-19T02:13:47.266Z,12.57
2017-07-19T02:16:13.559Z,11.03
2017-07-19T02:18:39.807Z,11.67
2017-07-19T02:21:06.514Z,10.43
2017-07-19T02:23:32.770Z,11.27
2017-07-19T02:25:59.054Z,11.60
2017-07-19T02:28:25.806Z,11.40
2017-07-19T02:30:52.649Z,11.10
2017-07-19T02:33:19.894Z,10.23
2017-07-19T02:35:47.051Z,9.47
2017-07-19T02:38:13.395Z,10.40
2017-07-19T02:40:39.668Z,10.13
2017-07-19T02:43:06.697Z,11.27
2017-07-19T02:45:32.965Z,11.03
2017-07-19T02:47:59.525Z,13.37
2017-07-19T02:50:25.871Z,12.27
2017-07-19T02:52:52.148Z,11.97
2017-07-19T02:55:19.802Z,12.97
2017-07-19T02:57:48.771Z,13.10
2017-07-19T03:00:15.064Z,12.33
2017-07-19T03:02:41.316Z,8.57
2017-07-19T03:05:07.644Z,12.00
2017-07-19T03:07:33.901Z,8.70
2017-07-19T03:10:00.933Z,13.50
2017-07-19T03:12:28.231Z,12.77
2017-07-19T03:14:54.488Z,11.50
2017-07-19T03:17:20.789Z,7.93
2017-07-19T03:19:48.052Z,10.70
2017-07-19T03:22:26.597Z,10.50
2017-07-19T03:24:53.465Z,11.30
2017-07-19T03:27:19.955Z,11.47
2017-07-19T03:29:47.317Z,10.03
2017-07-19T03:32:13.664Z,12.70
2017-07-19T03:34:40.692Z,9.57
2017-07-19T03:37:08.629Z,12.73
2017-07-19T03:39:35.724Z,14.47
2017-07-19T03:42:03.176Z,13.30
2017-07-19T03:44:29.408Z,12.20
2017-07-19T03:46:55.700Z,10.30
2017-07-19T03:49:21.991Z,10.30
2017-07-19T03:51:48.829Z,10.00
2017-07-19T03:54:15.597Z,11.63
2017-07-19T03:56:43.608Z,10.70
2017-07-19T03:59:10.401Z,10.73
2017-07-19T04:01:37.939Z,12.03
2017-07-19T04:04:04.766Z,10.97
2017-07-19T04:06:31.126Z,11.20
2017-07-19T04:08:58.450Z,11.33
2017-07-19T04:11:24.778Z,11.67
2017-07-19T04:13:51.677Z,9.33
2017-07-19T04:16:18.956Z,13.30
2017-07-19T04:18:45.499Z,10.80
2017-07-19T04:21:11.959Z,12.53
2017-07-19T04:23:39.021Z,14.70
2017-07-19T04:26:06.272Z,11.10
2017-07-19T04:28:33.075Z,13.50
2017-07-19T04:31:00.560Z,11.70
2017-07-19T04:33:27.579Z,14.13
2017-07-19T04:35:54.286Z,12.63
2017-07-19T04:38:20.586Z,13.90
2017-07-19T04:40:47.645Z,10.57
2017-07-19T04:43:14.710Z,11.53
2017-07-19T04:45:41.309Z,13.80
2017-07-19T04:48:07.612Z,12.53
2017-07-19T04:50:34.826Z,12.00
2017-07-19T04:53:01.117Z,14.63
2017-07-19T04:55:28.150Z,14.03
2017-07-19T04:57:54.569Z,12.33
2017-07-19T05:00:21.153Z,10.40
2017-07-19T05:02:49.070Z,12.63
2017-07-19T05:05:15.342Z,10.93
2017-07-19T05:07:42.443Z,13.90
2017-07-19T05:10:08.716Z,15.40
2017-07-19T05:12:34.975Z,14.27
2017-07-19T05:15:01.260Z,12.47
2017-07-19T05:17:28.173Z,15.60
2017-07-19T05:19:54.436Z,17.20
2017-07-19T05:22:20.694Z,15.43
2017-07-19T05:24:48.320Z,14.23
2017-07-19T05:27:14.614Z,13.30
2017-07-19T05:29:41.459Z,16.00
2017-07-19T05:32:07.749Z,15.27
2017-07-19T05:34:34.109Z,15.50
2017-07-19T05:37:00.374Z,15.43
2017-07-19T05:39:27.200Z,13.47
2017-07-19T05:41:53.478Z,13.27
2017-07-19T05:44:19.976Z,14.77
2017-07-19T05:46:46.305Z,13.20
2017-07-19T05:49:13.356Z,11.10
2017-07-19T05:51:41.386Z,12.60
2017-07-19T05:54:07.669Z,12.03
2017-07-19T05:56:34.570Z,11.27
2017-07-19T05:59:02.163Z,10.80
2017-07-19T06:01:28.795Z,9.43
2017-07-19T06:03:55.087Z,10.87
2017-07-19T06:06:21.494Z,11.37
2017-07-19T06:08:49.038Z,9.20
2017-07-19T06:11:17.052Z,10.00
2017-07-19T06:13:43.311Z,9.83
2017-07-19T06:16:09.584Z,9.20
2017-07-19T06:18:35.870Z,8.00
2017-07-19T06:21:02.110Z,7.40
2017-07-19T06:23:28.727Z,7.23
2017-07-19T06:25:54.989Z,6.90
2017-07-19T06:28:21.236Z,6.40
2017-07-19T06:30:48.246Z,6.27
2017-07-19T06:33:15.076Z,6.60
2017-07-19T06:35:42.166Z,5.10
2017-07-19T06:38:09.255Z,5.77
2017-07-19T06:40:36.539Z,5.83
2017-07-19T06:43:02.790Z,5.70
2017-07-19T06:45:30.320Z,5.03
2017-07-19T06:47:57.564Z,5.37
2017-07-19T06:50:24.051Z,5.17
2017-07-19T06:52:50.498Z,5.00
2017-07-19T06:55:17.352Z,4.63
2017-07-19T06:57:45.163Z,5.10
2017-07-19T07:00:13.705Z,5.50
2017-07-19T07:02:41.497Z,4.73
2017-07-19T07:05:08.027Z,5.17
2017-07-19T07:07:34.267Z,5.47
2017-07-19T07:10:00.512Z,5.30
2017-07-19T07:12:28.667Z,5.43
2017-07-19T07:14:54.942Z,6.20
2017-07-19T07:17:22.041Z,5.23
2017-07-19T07:19:49.748Z,5.30
2017-07-19T07:22:16.933Z,4.63
2017-07-19T07:24:43.831Z,4.60
2017-07-19T07:27:11.420Z,5.00
2017-07-19T07:29:38.683Z,4.87
2017-07-19T07:32:05.638Z,4.40
2017-07-19T07:34:31.932Z,5.00
2017-07-19T07:36:59.170Z,5.37
2017-07-19T07:39:25.748Z,5.27
2017-07-19T07:41:52.207Z,5.40
2017-07-19T07:44:18.475Z,5.20
2017-07-19T07:46:44.719Z,5.23
2017-07-19T07:49:11.608Z,5.80
2017-07-19T07:51:38.168Z,5.63
2017-07-19T07:54:05.650Z,5.50
2017-07-19T07:56:32.870Z,5.37
2017-07-19T07:59:00.179Z,5.50
2017-07-19T08:01:26.457Z,4.90
2017-07-19T08:03:53.500Z,4.80
2017-07-19T08:06:20.944Z,5.40
2017-07-19T08:08:47.203Z,4.90
2017-07-19T08:11:14.092Z,5.63
2017-07-19T08:13:40.326Z,5.33
2017-07-19T08:16:07.829Z,4.43
2017-07-19T08:18:35.422Z,4.80
2017-07-19T08:21:02.355Z,4.20
2017-07-19T08:23:29.429Z,4.87
2017-07-19T08:25:57.164Z,4.23
2017-07-19T08:28:23.424Z,4.50
2017-07-19T08:30:49.711Z,4.50
2017-07-19T08:33:16.576Z,4.83
2017-07-19T08:35:42.844Z,4.53
2017-07-19T08:38:09.788Z,4.60
2017-07-19T08:40:37.081Z,5.30
2017-07-19T08:43:03.332Z,4.40
2017-07-19T08:45:29.620Z,4.80
2017-07-19T08:47:57.165Z,3.70
2017-07-19T08:50:25.177Z,5.30
2017-07-19T08:52:51.434Z,4.43
2017-07-19T08:55:19.013Z,4.77
2017-07-19T08:57:46.835Z,5.43
2017-07-19T09:00:14.074Z,4.50
2017-07-19T09:02:40.360Z,5.13
2017-07-19T09:05:06.660Z,4.67
2017-07-19T09:07:32.947Z,4.10
2017-07-19T09:10:01.220Z,4.53
2017-07-19T09:12:28.904Z,4.20
2017-07-19T09:14:55.159Z,6.00
2017-07-19T09:17:21.434Z,4.40
2017-07-19T09:19:49.697Z,4.87
2017-07-19T09:22:15.974Z,4.30
2017-07-19T09:24:42.260Z,4.00
2017-07-19T09:27:09.281Z,4.80
2017-07-19T09:29:35.557Z,4.80
2017-07-19T09:32:01.888Z,4.70
2017-07-19T09:34:28.274Z,5.10
2017-07-19T09:36:54.555Z,4.70
2017-07-19T09:39:21.315Z,5.07
2017-07-19T09:41:47.567Z,4.53
2017-07-19T09:44:13.907Z,5.60
2017-07-19T09:46:40.814Z,4.23
2017-07-19T09:49:08.580Z,4.77
2017-07-19T09:51:35.775Z,5.03
2017-07-19T09:54:02.826Z,4.50
2017-07-19T09:56:30.119Z,4.33
2017-07-19T09:58:57.196Z,3.60
2017-07-19T10:01:24.042Z,3.60
2017-07-19T10:03:50.299Z,3.80
2017-07-19T10:06:17.902Z,4.20
2017-07-19T10:08:44.142Z,3.83
2017-07-19T10:11:10.446Z,3.67
2017-07-19T10:13:37.362Z,3.23
2017-07-19T10:16:04.372Z,3.50
2017-07-19T10:18:30.636Z,3.57
2017-07-19T10:20:56.900Z,2.93
2017-07-19T10:23:23.162Z,3.00
2017-07-19T10:25:50.642Z,2.73
2017-07-19T10:28:16.913Z,3.23
2017-07-19T10:30:43.159Z,3.10
2017-07-19T10:33:10.124Z,3.83
2017-07-19T10:35:36.967Z,3.40
2017-07-19T10:38:03.488Z,3.13
2017-07-19T10:40:30.305Z,3.43
2017-07-19T10:42:56.563Z,2.57
2017-07-19T10:45:22.926Z,2.67
2017-07-19T10:47:49.730Z,2.70
2017-07-19T10:50:23.800Z,2.77
2017-07-19T10:52:50.616Z,2.50
2017-07-19T10:55:18.859Z,2.17
2017-07-19T10:57:46.024Z,1.90
2017-07-19T11:00:12.944Z,2.23
2017-07-19T11:02:39.272Z,2.87
2017-07-19T11:05:06.057Z,2.40
2017-07-19T11:07:33.094Z,2.63
2017-07-19T11:09:59.380Z,2.30
2017-07-19T11:12:25.945Z,2.17
2017-07-19T11:14:53.052Z,2.00
2017-07-19T11:17:20.044Z,1.70
2017-07-19T11:19:46.840Z,2.40
2017-07-19T11:22:13.115Z,1.93
2017-07-19T11:24:39.650Z,2.73
2017-07-19T11:27:06.898Z,2.30
2017-07-19T11:29:34.154Z,2.30
2017-07-19T11:32:00.609Z,2.50
2017-07-19T11:34:28.418Z,2.70
2017-07-19T11:36:54.700Z,3.03
2017-07-19T11:39:20.994Z,3.00
2017-07-19T11:41:47.636Z,2.60
2017-07-19T11:44:14.590Z,2.70
2017-07-19T11:46:40.837Z,2.90
2017-07-19T11:49:07.266Z,2.60
2017-07-19T11:51:34.193Z,2.70
2017-07-19T11:54:01.296Z,2.40
2017-07-19T11:56:27.523Z,2.80
2017-07-19T11:58:53.768Z,3.60
2017-07-19T12:01:20.600Z,2.93
2017-07-19T12:03:47.056Z,2.60
2017-07-19T12:06:13.331Z,3.17
2017-07-19T12:08:40.447Z,2.67
2017-07-19T12:11:06.763Z,2.77
2017-07-19T12:13:33.688Z,2.60
2017-07-19T12:15:59.952Z,2.70
2017-07-19T12:18:27.215Z,2.53
2017-07-19T12:20:53.519Z,2.40
2017-07-19T12:23:20.574Z,2.57
2017-07-19T12:25:48.267Z,2.60
2017-07-19T12:28:14.526Z,2.20
2017-07-19T12:30:40.768Z,2.37
2017-07-19T12:33:07.726Z,2.10
2017-07-19T12:35:35.022Z,2.23
2017-07-19T12:38:01.372Z,2.23
2017-07-19T12:40:28.373Z,2.43
2017-07-19T12:42:54.704Z,2.97
2017-07-19T12:45:20.987Z,2.40
2017-07-19T12:47:47.923Z,2.43
2017-07-19T12:50:14.986Z,2.60
2017-07-19T12:52:41.227Z,2.27
2017-07-19T12:55:07.504Z,2.53
2017-07-19T12:57:33.780Z,2.40
2017-07-19T13:00:00.828Z,2.63
2017-07-19T13:02:27.861Z,2.60
2017-07-19T13:04:54.135Z,2.70
2017-07-19T13:07:21.346Z,2.47
2017-07-19T13:09:47.581Z,2.57
2017-07-19T13:12:13.840Z,2.70
2017-07-19T13:14:40.112Z,2.80
2017-07-19T13:17:06.607Z,2.87
2017-07-19T13:19:32.942Z,2.27
2017-07-19T13:21:59.294Z,2.70
2017-07-19T13:24:26.550Z,3.10
2017-07-19T13:26:53.530Z,2.70
2017-07-19T13:29:19.799Z,2.80
2017-07-19T13:31:46.242Z,2.47
2017-07-19T13:34:13.735Z,2.30
2017-07-19T13:36:40.292Z,2.87
2017-07-19T13:39:08.303Z,2.37
2017-07-19T13:41:36.549Z,3.30
2017-07-19T13:44:02.823Z,2.70
2017-07-19T13:46:30.025Z,2.70
2017-07-19T13:48:56.286Z,2.73
2017-07-19T13:51:22.542Z,2.40
2017-07-19T13:53:49.545Z,2.37
2017-07-19T13:56:16.426Z,2.60
2017-07-19T13:58:43.433Z,2.63
2017-07-19T14:01:09.723Z,2.73
2017-07-19T14:03:36.803Z,2.80
2017-07-19T14:06:03.072Z,2.50
2017-07-19T14:08:29.361Z,2.73
2017-07-19T14:10:55.637Z,2.90
2017-07-19T14:13:22.669Z,2.80
2017-07-19T14:15:48.945Z,2.53
2017-07-19T14:18:15.226Z,2.77
2017-07-19T14:20:42.155Z,2.60
2017-07-19T14:23:08.446Z,2.40
2017-07-19T14:25:34.730Z,2.70
2017-07-19T14:28:01.004Z,2.40
2017-07-19T14:30:27.301Z,2.70
2017-07-19T14:32:54.552Z,2.60
2017-07-19T14:35:21.578Z,2.70
2017-07-19T14:37:48.066Z,2.53
2017-07-19T14:40:14.357Z,3.03
2017-07-19T14:42:40.618Z,2.47
2017-07-19T14:45:07.408Z,2.20
2017-07-19T14:47:33.861Z,2.50
2017-07-19T14:50:00.880Z,2.53
2017-07-19T14:52:27.130Z,2.50
2017-07-19T14:54:53.429Z,2.73
2017-07-19T14:57:19.745Z,3.20
2017-07-19T14:59:46.013Z,3.13
2017-07-19T15:02:12.629Z,2.50
2017-07-19T15:04:38.920Z,2.90
2017-07-19T15:07:06.143Z,2.67
2017-07-19T15:09:32.411Z,4.00
2017-07-19T15:12:00.093Z,3.50
2017-07-19T15:14:27.640Z,3.00
2017-07-19T15:16:54.724Z,3.03
2017-07-19T15:19:22.208Z,2.90
2017-07-19T15:21:49.077Z,3.10
2017-07-19T15:24:15.329Z,2.70
2017-07-19T15:26:41.668Z,3.30
2017-07-19T15:29:09.079Z,3.10
2017-07-19T15:31:36.361Z,3.17
2017-07-19T15:34:02.681Z,3.00
2017-07-19T15:36:29.479Z,3.03
2017-07-19T15:38:56.689Z,2.93
2017-07-19T15:41:24.094Z,2.40
2017-07-19T15:43:52.586Z,3.00
2017-07-19T15:46:19.586Z,3.40
2017-07-19T15:48:45.870Z,2.97
2017-07-19T15:51:13.051Z,3.50
2017-07-19T15:53:39.931Z,2.97
2017-07-19T15:56:08.149Z,3.03
2017-07-19T15:58:34.405Z,3.30
2017-07-19T16:01:00.687Z,3.10
2017-07-19T16:03:28.231Z,3.17
2017-07-19T16:05:55.236Z,3.10
2017-07-19T16:08:22.990Z,2.80
2017-07-19T16:10:49.662Z,2.70
2017-07-19T16:13:16.784Z,2.27
2017-07-19T16:15:43.545Z,3.00
2017-07-19T16:18:09.943Z,2.47
2017-07-19T16:20:36.298Z,2.97
2017-07-19T16:23:02.584Z,3.27
2017-07-19T16:25:28.852Z,2.60
2017-07-19T16:27:55.740Z,2.63
2017-07-19T16:30:23.749Z,2.97
2017-07-19T16:32:50.097Z,2.90
2017-07-19T16:35:17.243Z,2.70
2017-07-19T16:37:44.527Z,3.23
2017-07-19T16:40:12.496Z,3.57
2017-07-19T16:42:39.360Z,3.27
2017-07-19T16:45:07.455Z,2.50
2017-07-19T16:47:33.819Z,3.23
2017-07-19T16:50:00.071Z,3.20
2017-07-19T17:02:12.766Z,3.47
2017-07-19T17:04:40.424Z,3.30
2017-07-19T17:07:08.198Z,2.40
2017-07-19T17:09:34.430Z,3.30
2017-07-19T17:12:00.841Z,3.73
2017-07-19T17:14:27.126Z,2.87
2017-07-19T17:16:53.388Z,3.30
2017-07-19T17:19:22.334Z,2.67
2017-07-19T17:21:49.009Z,2.80
2017-07-19T17:24:17.895Z,4.20
2017-07-19T17:26:44.141Z,4.80
2017-07-19T17:29:11.958Z,3.70
2017-07-19T17:31:39.361Z,3.83
2017-07-19T17:34:05.955Z,3.27
2017-07-19T17:36:32.903Z,3.40
2017-07-19T17:38:59.170Z,4.13
2017-07-19T17:41:26.415Z,3.50
2017-07-19T17:43:52.935Z,3.03
2017-07-19T17:46:19.204Z,3.20
2017-07-19T17:48:45.472Z,3.07
2017-07-19T17:51:11.970Z,3.30
2017-07-19T17:53:38.853Z,3.60
2017-07-19T17:56:06.896Z,3.30
2017-07-19T17:58:33.385Z,3.80
2017-07-19T18:01:00.706Z,3.47
2017-07-19T18:03:28.475Z,3.60
2017-07-19T18:05:55.227Z,3.67
2017-07-19T18:08:21.611Z,3.97
2017-07-19T18:10:48.876Z,6.47
2017-07-19T18:13:16.120Z,10.80
2017-07-19T18:15:42.405Z,5.87
2017-07-19T18:18:08.684Z,4.53
2017-07-19T18:20:35.689Z,4.90
2017-07-19T18:23:04.021Z,5.07
2017-07-19T18:25:30.813Z,4.90
2017-07-19T18:27:57.834Z,4.70
2017-07-19T18:30:24.104Z,5.37
2017-07-19T18:32:52.020Z,5.50
2017-07-19T18:35:19.036Z,3.67
2017-07-19T18:37:45.412Z,3.93
2017-07-19T18:40:12.377Z,3.87
2017-07-19T18:42:39.986Z,3.70
2017-07-19T18:45:07.075Z,4.23
2017-07-19T18:47:34.318Z,4.07
2017-07-19T18:50:01.293Z,4.47
2017-07-19T18:52:28.279Z,4.30
2017-07-19T18:54:55.296Z,3.97
2017-07-19T18:57:21.560Z,3.57
2017-07-19T18:59:47.834Z,3.50
2017-07-19T19:02:15.197Z,3.60
2017-07-19T19:04:41.563Z,4.27
2017-07-19T19:07:07.809Z,4.10
2017-07-19T19:09:34.115Z,4.10
2017-07-19T19:12:00.991Z,4.00
2017-07-19T19:14:27.319Z,4.33
2017-07-19T19:16:54.556Z,4.43
2017-07-19T19:19:20.820Z,4.83
2017-07-19T19:21:47.131Z,4.90
2017-07-19T19:24:14.287Z,5.40
2017-07-19T19:26:41.965Z,5.10
2017-07-19T19:29:09.720Z,5.60
2017-07-19T19:31:36.000Z,4.33
2017-07-19T19:34:02.580Z,4.43
2017-07-19T19:36:29.689Z,4.10
2017-07-19T19:38:56.616Z,3.83
2017-07-19T19:41:23.235Z,3.83
2017-07-19T19:43:50.950Z,4.93
2017-07-19T19:46:17.970Z,4.50
2017-07-19T19:48:44.230Z,4.63
2017-07-19T19:51:10.509Z,4.27
2017-07-19T19:53:37.617Z,6.10
2017-07-19T19:56:04.578Z,5.63
2017-07-19T19:58:32.514Z,6.40
2017-07-19T20:01:00.177Z,6.20
2017-07-19T20:03:26.542Z,5.00
2017-07-19T20:05:53.361Z,5.07
2017-07-19T20:08:20.090Z,4.10
2017-07-19T20:10:46.392Z,4.27
2017-07-19T20:13:13.738Z,4.77
2017-07-19T20:15:40.218Z,4.80
2017-07-19T20:18:06.504Z,4.80
2017-07-19T20:20:32.769Z,4.30
2017-07-19T20:22:59.047Z,4.70
2017-07-19T20:25:26.136Z,4.30
2017-07-19T20:27:52.415Z,3.77
2017-07-19T20:30:21.237Z,4.40
2017-07-19T20:32:47.791Z,4.00
2017-07-19T20:35:14.622Z,3.30
2017-07-19T20:37:41.168Z,3.70
2017-07-19T20:40:08.032Z,3.47
2017-07-19T20:42:34.340Z,4.37
2017-07-19T20:45:01.841Z,3.73
2017-07-19T20:47:30.109Z,4.03
2017-07-19T20:49:56.608Z,3.40
2017-07-19T20:52:23.171Z,3.50
2017-07-19T20:54:49.467Z,3.60
2017-07-19T20:57:15.746Z,3.80
2017-07-19T20:59:42.961Z,3.13
2017-07-19T21:02:10.127Z,3.57
2017-07-19T21:04:37.150Z,2.90
2017-07-19T21:07:04.401Z,3.50
2017-07-19T21:09:31.942Z,4.27
2017-07-19T21:11:58.439Z,4.30
2017-07-19T21:14:24.772Z,3.83
2017-07-19T21:16:52.749Z,4.30
2017-07-19T21:19:20.118Z,4.10
2017-07-19T21:21:47.207Z,4.57
2017-07-19T21:24:13.476Z,4.07
2017-07-19T21:26:40.777Z,4.20
2017-07-19T21:29:07.313Z,3.83
2017-07-19T21:31:34.363Z,3.57
2017-07-19T21:34:01.658Z,4.00
2017-07-19T21:36:28.674Z,4.10
2017-07-19T21:38:55.421Z,4.10
2017-07-19T21:41:21.685Z,4.50
2017-07-19T21:43:49.464Z,4.07
2017-07-19T21:46:15.734Z,4.40
2017-07-19T21:48:42.002Z,4.63
2017-07-19T21:51:09.834Z,5.10
2017-07-19T21:53:36.875Z,4.20
2017-07-19T21:56:03.127Z,4.17
2017-07-19T21:58:30.245Z,4.30
2017-07-19T22:03:30.536Z,4.33
2017-07-19T22:05:57.538Z,4.43
2017-07-19T22:08:23.805Z,4.20
2017-07-19T22:10:50.572Z,4.60
2017-07-19T22:13:16.843Z,3.80
2017-07-19T22:15:43.359Z,3.70
2017-07-19T22:18:10.308Z,5.00
2017-07-19T22:20:37.606Z,4.10
2017-07-19T22:23:05.296Z,5.23
2017-07-19T22:25:31.559Z,4.80
2017-07-19T22:27:57.822Z,3.87
2017-07-19T22:30:26.074Z,4.87
2017-07-19T22:32:52.321Z,5.17
2017-07-19T22:35:19.853Z,3.87
2017-07-19T22:37:47.628Z,4.73
2017-07-19T22:40:14.141Z,5.23
2017-07-19T22:45:13.855Z,5.67
2017-07-19T22:47:41.623Z,5.43
2017-07-19T22:50:08.409Z,6.23
2017-07-19T22:52:34.720Z,6.80
2017-07-19T22:55:01.280Z,6.67
2017-07-19T22:57:29.554Z,5.83
2017-07-19T22:59:55.857Z,4.50
2017-07-19T23:02:22.087Z,5.40
2017-07-19T23:04:49.179Z,5.00
2017-07-19T23:07:15.403Z,4.83
2017-07-19T23:09:43.020Z,5.70
2017-07-19T23:12:10.087Z,5.03
2017-07-19T23:14:36.376Z,5.13
2017-07-19T23:17:02.645Z,5.30
2017-07-19T23:19:30.027Z,3.90
2017-07-19T23:21:57.040Z,4.33
2017-07-19T23:24:24.258Z,4.90
2017-07-19T23:26:50.620Z,5.10
2017-07-19T23:29:17.472Z,5.13
2017-07-19T23:31:43.756Z,4.93
2017-07-19T23:34:11.082Z,4.70
2017-07-19T23:36:39.067Z,4.83
2017-07-19T23:39:05.580Z,4.37
2017-07-19T23:41:33.559Z,4.70
2017-07-19T23:44:00.950Z,4.33
2017-07-19T23:46:28.624Z,5.30
2017-07-19T23:48:54.887Z,5.53
2017-07-19T23:51:21.878Z,5.03
2017-07-19T23:53:49.125Z,5.30
2017-07-19T23:56:15.914Z,5.10
2017-07-19T23:58:43.658Z,5.10
